Adel, Iowa
Current Conditions -  °F | °C
As of 7:55 PM on Friday 24 Oct 2014 (Local Time) from KPRO Reporting Station
Clear Clear  
Wind Chill: 60°   Ceiling: Unl
Heat Index: 60°   Visibility: 10mi
Dew Point: 57°   Wind: 6mph
Humidity: 88%   Direction: 260°W
Pressure: 29.93"   Gusts: NA
Location:  41.61°N, 94.02°W
Report Text: KPRO 250055Z AUTO 26005KT 10SM CLR 16/14 A2993 RMK AO2 T01570138
Loading
Personal Weather Stations






























Interactive Weather Map New forecast layout! Learn more

10-Day Weather Forecast

Advertisements
Track Severe Weather on mobile